Forside
METAR-TAF:

METAR-TAF

Lufthavne :

Gogebic-Iron County Airport

Ironwood, Michigan, USA

Breddekreds: 46-32N, længdekreds: 090-08W, højde: 375 m

Aktuelle vejr

Denne rapport blev lavet for 21 minutter siden, kl. 17:56 UTC
Vind 10 kt fra vestsydvest
Temperatur 4°C
Fugtighed 44%
Tryk 1013 hPa
Sigt: 16.1 km
skyfri

METAR: KIWD 221756Z AUTO 24010KT 10SM CLR 04/M07 A2991 RMK AO2 SLP142 T00441067 10044 21067 56012

Tid: 13:17 (18:17 UTC)

Vejrudsigter

Denne rapport blev lavet for 41 minutter siden, kl. 17:36 UTC
Foreløbig gælder fra 22 på 18 UTC til 23 på 18 UTC
Vind 10 kt fra sydvest
Sigt: 10 km
skyfri
Fra 23 på 0600 UTC
Vind 7 kt fra sydvest
Sigt: 10 km
Spredte skyer i en højde af 200 ft
Fra 23 på 1400 UTC
Vind 12 kt fra sydvest
Sigt: 10 km
Spredte skyer i en højde af 25000 ft

TAF: KIWD 221736Z 2218/2318 22010KT P6SM SKC FM230600 22007KT P6SM SCT002 FM231400 23012KT P6SM SCT250

Vejrobservationer og prognoser fra mere end 4000 lufthavne (METAR og TAF).

De gule og røde prikker repræsenterer de meteorologiske stationer.

Flyt musen over at se navnet på stationen.

Så klik over at se vejr observationer og prognoser.

At skifte det kort: Klik på de grønne knapper med et sort kors for at zoome ind; på den grønne knap med en bindestreg for at zoome ud; eller på de grønne pile for tilstødende kort.


METAR-TAF: